<?xml version="1.0" encoding="UTF-8" standalone="no" ?>
<gpx xmlns="http://www.topografix.com/GPX/1/1" xmlns:xsi="http://www.w3.org/2001/XMLSchema-instance" xsi:schemaLocation="http://www.topografix.com/GPX/1/1 http://www.topografix.com/GPX/1/1/gpx.xsd" version="1.1" creator="VisuGPX - https://www.visugpx.com">
  <metadata>
    <name>Etape 3: Saint-Florent-sur-Cher&gt; Selles-sur-Cher</name>
    <desc><![CDATA[tape 3: Saint-Florent-sur-Cher> Selles-sur-Cher
Vendredi 15 juin]]></desc>
  </metadata>
  <trk>
    <name><![CDATA[20180610203831-LJrq6]]></name>
    <trkseg>
      <trkpt lat="47.26115" lon="1.64966">
        <ele>80</ele>
        <time>2018-04-18T12:03:30Z</time>
      </trkpt>
      <trkpt lat="47.26116" lon="1.64964">
        <ele>80</ele>
        <time>2018-04-18T12:03:32Z</time>
      </trkpt>
      <trkpt lat="47.26123" lon="1.64951">
        <ele>80</ele>
        <time>2018-04-18T12:03:37Z</time>
      </trkpt>
      <trkpt lat="47.26129" lon="1.64931">
        <ele>80</ele>
        <time>2018-04-18T12:03:43Z</time>
      </trkpt>
      <trkpt lat="47.2613" lon="1.64928">
        <ele>80</ele>
        <time>2018-04-18T12:03:44Z</time>
      </trkpt>
      <trkpt lat="47.26139" lon="1.64917">
        <ele>79</ele>
        <time>2018-04-18T12:03:49Z</time>
      </trkpt>
      <trkpt lat="47.26143" lon="1.64912">
        <ele>80</ele>
        <time>2018-04-18T12:03:52Z</time>
      </trkpt>
      <trkpt lat="47.26119" lon="1.64857">
        <ele>81</ele>
        <time>2018-04-18T12:04:15Z</time>
      </trkpt>
      <trkpt lat="47.26135" lon="1.64811">
        <ele>81</ele>
        <time>2018-04-18T12:04:30Z</time>
      </trkpt>
      <trkpt lat="47.26138" lon="1.64794">
        <ele>81</ele>
        <time>2018-04-18T12:04:35Z</time>
      </trkpt>
      <trkpt lat="47.26139" lon="1.64783">
        <ele>81</ele>
        <time>2018-04-18T12:04:38Z</time>
      </trkpt>
      <trkpt lat="47.26137" lon="1.64707">
        <ele>80</ele>
        <time>2018-04-18T12:04:59Z</time>
      </trkpt>
      <trkpt lat="47.26126" lon="1.64704">
        <ele>80</ele>
        <time>2018-04-18T12:05:06Z</time>
      </trkpt>
      <trkpt lat="47.26125" lon="1.64697">
        <ele>80</ele>
        <time>2018-04-18T12:05:33Z</time>
      </trkpt>
      <trkpt lat="47.26142" lon="1.64622">
        <ele>80</ele>
        <time>2018-04-18T12:05:49Z</time>
      </trkpt>
      <trkpt lat="47.26144" lon="1.64603">
        <ele>80</ele>
        <time>2018-04-18T12:06:08Z</time>
      </trkpt>
      <trkpt lat="47.26144" lon="1.64603">
        <ele>80</ele>
        <time>2018-04-18T12:06:14Z</time>
      </trkpt>
      <trkpt lat="47.26145" lon="1.64603">
        <ele>80</ele>
        <time>2018-04-18T12:06:26Z</time>
      </trkpt>
      <trkpt lat="47.26145" lon="1.64603">
        <ele>80</ele>
        <time>2018-04-18T12:06:43Z</time>
      </trkpt>
      <trkpt lat="47.2615" lon="1.64588">
        <ele>80</ele>
        <time>2018-04-18T12:06:49Z</time>
      </trkpt>
      <trkpt lat="47.26151" lon="1.64584">
        <ele>79</ele>
        <time>2018-04-18T12:06:50Z</time>
      </trkpt>
      <trkpt lat="47.26153" lon="1.64579">
        <ele>79</ele>
        <time>2018-04-18T12:06:51Z</time>
      </trkpt>
      <trkpt lat="47.26154" lon="1.64575">
        <ele>79</ele>
        <time>2018-04-18T12:06:52Z</time>
      </trkpt>
      <trkpt lat="47.26162" lon="1.64555">
        <ele>79</ele>
        <time>2018-04-18T12:06:56Z</time>
      </trkpt>
      <trkpt lat="47.26164" lon="1.64549">
        <ele>79</ele>
        <time>2018-04-18T12:06:57Z</time>
      </trkpt>
      <trkpt lat="47.26169" lon="1.6453">
        <ele>79</ele>
        <time>2018-04-18T12:07:00Z</time>
      </trkpt>
      <trkpt lat="47.26192" lon="1.64464">
        <ele>79</ele>
        <time>2018-04-18T12:07:12Z</time>
      </trkpt>
      <trkpt lat="47.26197" lon="1.64457">
        <ele>79</ele>
        <time>2018-04-18T12:07:14Z</time>
      </trkpt>
      <trkpt lat="47.26238" lon="1.64425">
        <ele>80</ele>
        <time>2018-04-18T12:07:26Z</time>
      </trkpt>
      <trkpt lat="47.26249" lon="1.64416">
        <ele>80</ele>
        <time>2018-04-18T12:07:29Z</time>
      </trkpt>
      <trkpt lat="47.26294" lon="1.64365">
        <ele>80</ele>
        <time>2018-04-18T12:07:40Z</time>
      </trkpt>
      <trkpt lat="47.26325" lon="1.6433">
        <ele>80</ele>
        <time>2018-04-18T12:07:48Z</time>
      </trkpt>
      <trkpt lat="47.26369" lon="1.64282">
        <ele>80</ele>
        <time>2018-04-18T12:08:00Z</time>
      </trkpt>
      <trkpt lat="47.26415" lon="1.64235">
        <ele>81</ele>
        <time>2018-04-18T12:08:12Z</time>
      </trkpt>
      <trkpt lat="47.26463" lon="1.64186">
        <ele>84</ele>
        <time>2018-04-18T12:08:24Z</time>
      </trkpt>
      <trkpt lat="47.26511" lon="1.64135">
        <ele>82</ele>
        <time>2018-04-18T12:08:36Z</time>
      </trkpt>
      <trkpt lat="47.26527" lon="1.6412">
        <ele>81</ele>
        <time>2018-04-18T12:08:40Z</time>
      </trkpt>
      <trkpt lat="47.26572" lon="1.64076">
        <ele>80</ele>
        <time>2018-04-18T12:08:51Z</time>
      </trkpt>
      <trkpt lat="47.26616" lon="1.64028">
        <ele>80</ele>
        <time>2018-04-18T12:09:03Z</time>
      </trkpt>
      <trkpt lat="47.26654" lon="1.63984">
        <ele>80</ele>
        <time>2018-04-18T12:09:14Z</time>
      </trkpt>
      <trkpt lat="47.26699" lon="1.63935">
        <ele>82</ele>
        <time>2018-04-18T12:09:26Z</time>
      </trkpt>
      <trkpt lat="47.2673" lon="1.63898">
        <ele>83</ele>
        <time>2018-04-18T12:09:34Z</time>
      </trkpt>
      <trkpt lat="47.26761" lon="1.63826">
        <ele>84</ele>
        <time>2018-04-18T12:09:46Z</time>
      </trkpt>
      <trkpt lat="47.26786" lon="1.63753">
        <ele>84</ele>
        <time>2018-04-18T12:09:58Z</time>
      </trkpt>
      <trkpt lat="47.26803" lon="1.63671">
        <ele>84</ele>
        <time>2018-04-18T12:10:10Z</time>
      </trkpt>
      <trkpt lat="47.26817" lon="1.63589">
        <ele>83</ele>
        <time>2018-04-18T12:10:21Z</time>
      </trkpt>
      <trkpt lat="47.26833" lon="1.63509">
        <ele>83</ele>
        <time>2018-04-18T12:10:32Z</time>
      </trkpt>
      <trkpt lat="47.26853" lon="1.63431">
        <ele>84</ele>
        <time>2018-04-18T12:10:43Z</time>
      </trkpt>
      <trkpt lat="47.26869" lon="1.63349">
        <ele>82</ele>
        <time>2018-04-18T12:10:54Z</time>
      </trkpt>
      <trkpt lat="47.26885" lon="1.63266">
        <ele>81</ele>
        <time>2018-04-18T12:11:05Z</time>
      </trkpt>
      <trkpt lat="47.26904" lon="1.63188">
        <ele>79</ele>
        <time>2018-04-18T12:11:15Z</time>
      </trkpt>
      <trkpt lat="47.26927" lon="1.63112">
        <ele>78</ele>
        <time>2018-04-18T12:11:25Z</time>
      </trkpt>
      <trkpt lat="47.26947" lon="1.63055">
        <ele>78</ele>
        <time>2018-04-18T12:11:34Z</time>
      </trkpt>
      <trkpt lat="47.26974" lon="1.62984">
        <ele>78</ele>
        <time>2018-04-18T12:11:46Z</time>
      </trkpt>
      <trkpt lat="47.26984" lon="1.6296">
        <ele>78</ele>
        <time>2018-04-18T12:11:50Z</time>
      </trkpt>
      <trkpt lat="47.2701" lon="1.62886">
        <ele>78</ele>
        <time>2018-04-18T12:12:01Z</time>
      </trkpt>
      <trkpt lat="47.27016" lon="1.6286">
        <ele>78</ele>
        <time>2018-04-18T12:12:05Z</time>
      </trkpt>
      <trkpt lat="47.27019" lon="1.62848">
        <ele>78</ele>
        <time>2018-04-18T12:12:07Z</time>
      </trkpt>
      <trkpt lat="47.27035" lon="1.62772">
        <ele>77</ele>
        <time>2018-04-18T12:12:21Z</time>
      </trkpt>
      <trkpt lat="47.27052" lon="1.62695">
        <ele>77</ele>
        <time>2018-04-18T12:12:36Z</time>
      </trkpt>
      <trkpt lat="47.27056" lon="1.62679">
        <ele>77</ele>
        <time>2018-04-18T12:12:39Z</time>
      </trkpt>
      <trkpt lat="47.27072" lon="1.62601">
        <ele>78</ele>
        <time>2018-04-18T12:12:56Z</time>
      </trkpt>
      <trkpt lat="47.27087" lon="1.62526">
        <ele>77</ele>
        <time>2018-04-18T12:13:14Z</time>
      </trkpt>
      <trkpt lat="47.27089" lon="1.62514">
        <ele>76</ele>
        <time>2018-04-18T12:13:16Z</time>
      </trkpt>
      <trkpt lat="47.27095" lon="1.62485">
        <ele>76</ele>
        <time>2018-04-18T12:13:21Z</time>
      </trkpt>
      <trkpt lat="47.27111" lon="1.62405">
        <ele>76</ele>
        <time>2018-04-18T12:13:34Z</time>
      </trkpt>
      <trkpt lat="47.27119" lon="1.62384">
        <ele>76</ele>
        <time>2018-04-18T12:13:39Z</time>
      </trkpt>
      <trkpt lat="47.27126" lon="1.62367">
        <ele>76</ele>
        <time>2018-04-18T12:13:43Z</time>
      </trkpt>
      <trkpt lat="47.27131" lon="1.62349">
        <ele>76</ele>
        <time>2018-04-18T12:13:46Z</time>
      </trkpt>
      <trkpt lat="47.27147" lon="1.62272">
        <ele>77</ele>
        <time>2018-04-18T12:13:59Z</time>
      </trkpt>
      <trkpt lat="47.27163" lon="1.62194">
        <ele>77</ele>
        <time>2018-04-18T12:14:11Z</time>
      </trkpt>
      <trkpt lat="47.27181" lon="1.62114">
        <ele>76</ele>
        <time>2018-04-18T12:14:23Z</time>
      </trkpt>
      <trkpt lat="47.27192" lon="1.62031">
        <ele>75</ele>
        <time>2018-04-18T12:14:37Z</time>
      </trkpt>
      <trkpt lat="47.27191" lon="1.62024">
        <ele>75</ele>
        <time>2018-04-18T12:14:38Z</time>
      </trkpt>
      <trkpt lat="47.27186" lon="1.61994">
        <ele>75</ele>
        <time>2018-04-18T12:14:42Z</time>
      </trkpt>
      <trkpt lat="47.27182" lon="1.61931">
        <ele>74</ele>
        <time>2018-04-18T12:14:50Z</time>
      </trkpt>
      <trkpt lat="47.2718" lon="1.61888">
        <ele>75</ele>
        <time>2018-04-18T12:14:56Z</time>
      </trkpt>
      <trkpt lat="47.27187" lon="1.61836">
        <ele>76</ele>
        <time>2018-04-18T12:15:09Z</time>
      </trkpt>
      <trkpt lat="47.27189" lon="1.61831">
        <ele>76</ele>
        <time>2018-04-18T12:15:10Z</time>
      </trkpt>
      <trkpt lat="47.2719" lon="1.61826">
        <ele>76</ele>
        <time>2018-04-18T12:15:11Z</time>
      </trkpt>
      <trkpt lat="47.27191" lon="1.61822">
        <ele>76</ele>
        <time>2018-04-18T12:15:12Z</time>
      </trkpt>
      <trkpt lat="47.27193" lon="1.61817">
        <ele>77</ele>
        <time>2018-04-18T12:15:13Z</time>
      </trkpt>
      <trkpt lat="47.27195" lon="1.61809">
        <ele>77</ele>
        <time>2018-04-18T12:15:15Z</time>
      </trkpt>
      <trkpt lat="47.27196" lon="1.61806">
        <ele>77</ele>
        <time>2018-04-18T12:15:16Z</time>
      </trkpt>
      <trkpt lat="47.27198" lon="1.61798">
        <ele>77</ele>
        <time>2018-04-18T12:15:19Z</time>
      </trkpt>
      <trkpt lat="47.27199" lon="1.61794">
        <ele>77</ele>
        <time>2018-04-18T12:15:22Z</time>
      </trkpt>
      <trkpt lat="47.27198" lon="1.61795">
        <ele>77</ele>
        <time>2018-04-18T12:15:48Z</time>
      </trkpt>
      <trkpt lat="47.27198" lon="1.61795">
        <ele>77</ele>
        <time>2018-04-18T12:15:52Z</time>
      </trkpt>
      <trkpt lat="47.27198" lon="1.61795">
        <ele>77</ele>
        <time>2018-04-18T12:16:05Z</time>
      </trkpt>
      <trkpt lat="47.27199" lon="1.6179">
        <ele>77</ele>
        <time>2018-04-18T12:16:09Z</time>
      </trkpt>
      <trkpt lat="47.27194" lon="1.61734">
        <ele>78</ele>
        <time>2018-04-18T12:16:18Z</time>
      </trkpt>
      <trkpt lat="47.27193" lon="1.61727">
        <ele>78</ele>
        <time>2018-04-18T12:16:19Z</time>
      </trkpt>
      <trkpt lat="47.27191" lon="1.61695">
        <ele>77</ele>
        <time>2018-04-18T12:16:23Z</time>
      </trkpt>
      <trkpt lat="47.27188" lon="1.61613">
        <ele>78</ele>
        <time>2018-04-18T12:16:35Z</time>
      </trkpt>
      <trkpt lat="47.27187" lon="1.61579">
        <ele>77</ele>
        <time>2018-04-18T12:16:40Z</time>
      </trkpt>
      <trkpt lat="47.27186" lon="1.61494">
        <ele>77</ele>
        <time>2018-04-18T12:16:52Z</time>
      </trkpt>
      <trkpt lat="47.27185" lon="1.61429">
        <ele>77</ele>
        <time>2018-04-18T12:17:01Z</time>
      </trkpt>
      <trkpt lat="47.27186" lon="1.61401">
        <ele>77</ele>
        <time>2018-04-18T12:17:05Z</time>
      </trkpt>
      <trkpt lat="47.27185" lon="1.61336">
        <ele>76</ele>
        <time>2018-04-18T12:17:14Z</time>
      </trkpt>
      <trkpt lat="47.27185" lon="1.61314">
        <ele>76</ele>
        <time>2018-04-18T12:17:17Z</time>
      </trkpt>
      <trkpt lat="47.27184" lon="1.61234">
        <ele>76</ele>
        <time>2018-04-18T12:17:28Z</time>
      </trkpt>
      <trkpt lat="47.27184" lon="1.61155">
        <ele>77</ele>
        <time>2018-04-18T12:17:39Z</time>
      </trkpt>
      <trkpt lat="47.27184" lon="1.61075">
        <ele>76</ele>
        <time>2018-04-18T12:17:51Z</time>
      </trkpt>
      <trkpt lat="47.2718" lon="1.61026">
        <ele>76</ele>
        <time>2018-04-18T12:18:04Z</time>
      </trkpt>
      <trkpt lat="47.27124" lon="1.6102">
        <ele>76</ele>
        <time>2018-04-18T12:18:19Z</time>
      </trkpt>
      <trkpt lat="47.27093" lon="1.61019">
        <ele>76</ele>
        <time>2018-04-18T12:18:26Z</time>
      </trkpt>
      <trkpt lat="47.27038" lon="1.61018">
        <ele>76</ele>
        <time>2018-04-18T12:18:39Z</time>
      </trkpt>
      <trkpt lat="47.27" lon="1.61016">
        <ele>75</ele>
        <time>2018-04-18T12:18:48Z</time>
      </trkpt>
      <trkpt lat="47.26975" lon="1.61015">
        <ele>75</ele>
        <time>2018-04-18T12:18:54Z</time>
      </trkpt>
      <trkpt lat="47.26918" lon="1.61012">
        <ele>75</ele>
        <time>2018-04-18T12:19:07Z</time>
      </trkpt>
      <trkpt lat="47.26888" lon="1.6101">
        <ele>76</ele>
        <time>2018-04-18T12:19:14Z</time>
      </trkpt>
      <trkpt lat="47.26869" lon="1.6101">
        <ele>76</ele>
        <time>2018-04-18T12:19:18Z</time>
      </trkpt>
      <trkpt lat="47.2685" lon="1.61008">
        <ele>76</ele>
        <time>2018-04-18T12:19:22Z</time>
      </trkpt>
      <trkpt lat="47.26836" lon="1.61007">
        <ele>76</ele>
        <time>2018-04-18T12:19:25Z</time>
      </trkpt>
      <trkpt lat="47.26788" lon="1.61004">
        <ele>76</ele>
        <time>2018-04-18T12:19:35Z</time>
      </trkpt>
      <trkpt lat="47.2677" lon="1.61003">
        <ele>76</ele>
        <time>2018-04-18T12:19:39Z</time>
      </trkpt>
      <trkpt lat="47.26757" lon="1.61002">
        <ele>76</ele>
        <time>2018-04-18T12:19:42Z</time>
      </trkpt>
      <trkpt lat="47.26728" lon="1.60955">
        <ele>76</ele>
        <time>2018-04-18T12:19:56Z</time>
      </trkpt>
      <trkpt lat="47.26731" lon="1.60873">
        <ele>76</ele>
        <time>2018-04-18T12:20:08Z</time>
      </trkpt>
      <trkpt lat="47.26731" lon="1.60793">
        <ele>76</ele>
        <time>2018-04-18T12:20:19Z</time>
      </trkpt>
      <trkpt lat="47.26732" lon="1.60711">
        <ele>75</ele>
        <time>2018-04-18T12:20:29Z</time>
      </trkpt>
      <trkpt lat="47.26733" lon="1.6063">
        <ele>75</ele>
        <time>2018-04-18T12:20:39Z</time>
      </trkpt>
      <trkpt lat="47.26733" lon="1.60543">
        <ele>75</ele>
        <time>2018-04-18T12:20:49Z</time>
      </trkpt>
      <trkpt lat="47.26731" lon="1.605">
        <ele>76</ele>
        <time>2018-04-18T12:20:54Z</time>
      </trkpt>
      <trkpt lat="47.26725" lon="1.60413">
        <ele>77</ele>
        <time>2018-04-18T12:21:04Z</time>
      </trkpt>
      <trkpt lat="47.26722" lon="1.60327">
        <ele>76</ele>
        <time>2018-04-18T12:21:14Z</time>
      </trkpt>
      <trkpt lat="47.26724" lon="1.60244">
        <ele>76</ele>
        <time>2018-04-18T12:21:24Z</time>
      </trkpt>
      <trkpt lat="47.2673" lon="1.60159">
        <ele>75</ele>
        <time>2018-04-18T12:21:34Z</time>
      </trkpt>
      <trkpt lat="47.26733" lon="1.60072">
        <ele>75</ele>
        <time>2018-04-18T12:21:44Z</time>
      </trkpt>
      <trkpt lat="47.26734" lon="1.6002">
        <ele>75</ele>
        <time>2018-04-18T12:21:50Z</time>
      </trkpt>
      <trkpt lat="47.26734" lon="1.60003">
        <ele>75</ele>
        <time>2018-04-18T12:21:52Z</time>
      </trkpt>
      <trkpt lat="47.26734" lon="1.59995">
        <ele>75</ele>
        <time>2018-04-18T12:21:53Z</time>
      </trkpt>
      <trkpt lat="47.26734" lon="1.59978">
        <ele>75</ele>
        <time>2018-04-18T12:21:55Z</time>
      </trkpt>
      <trkpt lat="47.26734" lon="1.59898">
        <ele>75</ele>
        <time>2018-04-18T12:22:04Z</time>
      </trkpt>
      <trkpt lat="47.26733" lon="1.59813">
        <ele>76</ele>
        <time>2018-04-18T12:22:13Z</time>
      </trkpt>
      <trkpt lat="47.26731" lon="1.59727">
        <ele>76</ele>
        <time>2018-04-18T12:22:22Z</time>
      </trkpt>
      <trkpt lat="47.26728" lon="1.59643">
        <ele>76</ele>
        <time>2018-04-18T12:22:31Z</time>
      </trkpt>
      <trkpt lat="47.2672" lon="1.5956">
        <ele>76</ele>
        <time>2018-04-18T12:22:40Z</time>
      </trkpt>
      <trkpt lat="47.26708" lon="1.59477">
        <ele>76</ele>
        <time>2018-04-18T12:22:49Z</time>
      </trkpt>
      <trkpt lat="47.26698" lon="1.59435">
        <ele>76</ele>
        <time>2018-04-18T12:22:54Z</time>
      </trkpt>
      <trkpt lat="47.26689" lon="1.5935">
        <ele>76</ele>
        <time>2018-04-18T12:23:03Z</time>
      </trkpt>
      <trkpt lat="47.26696" lon="1.59291">
        <ele>76</ele>
        <time>2018-04-18T12:23:09Z</time>
      </trkpt>
      <trkpt lat="47.26699" lon="1.59282">
        <ele>76</ele>
        <time>2018-04-18T12:23:10Z</time>
      </trkpt>
      <trkpt lat="47.26708" lon="1.59256">
        <ele>76</ele>
        <time>2018-04-18T12:23:13Z</time>
      </trkpt>
      <trkpt lat="47.2671" lon="1.59247">
        <ele>75</ele>
        <time>2018-04-18T12:23:14Z</time>
      </trkpt>
      <trkpt lat="47.26713" lon="1.59238">
        <ele>75</ele>
        <time>2018-04-18T12:23:15Z</time>
      </trkpt>
      <trkpt lat="47.26733" lon="1.59155">
        <ele>75</ele>
        <time>2018-04-18T12:23:24Z</time>
      </trkpt>
      <trkpt lat="47.2675" lon="1.59071">
        <ele>75</ele>
        <time>2018-04-18T12:23:33Z</time>
      </trkpt>
      <trkpt lat="47.26762" lon="1.59013">
        <ele>75</ele>
        <time>2018-04-18T12:23:39Z</time>
      </trkpt>
      <trkpt lat="47.26777" lon="1.58941">
        <ele>75</ele>
        <time>2018-04-18T12:23:47Z</time>
      </trkpt>
      <trkpt lat="47.26791" lon="1.58873">
        <ele>75</ele>
        <time>2018-04-18T12:23:56Z</time>
      </trkpt>
      <trkpt lat="47.26795" lon="1.58852">
        <ele>75</ele>
        <time>2018-04-18T12:23:59Z</time>
      </trkpt>
      <trkpt lat="47.26812" lon="1.58775">
        <ele>76</ele>
        <time>2018-04-18T12:24:09Z</time>
      </trkpt>
      <trkpt lat="47.2683" lon="1.58696">
        <ele>76</ele>
        <time>2018-04-18T12:24:19Z</time>
      </trkpt>
      <trkpt lat="47.26848" lon="1.58614">
        <ele>75</ele>
        <time>2018-04-18T12:24:29Z</time>
      </trkpt>
      <trkpt lat="47.26864" lon="1.58545">
        <ele>74</ele>
        <time>2018-04-18T12:24:37Z</time>
      </trkpt>
      <trkpt lat="47.2688" lon="1.58468">
        <ele>74</ele>
        <time>2018-04-18T12:24:46Z</time>
      </trkpt>
      <trkpt lat="47.26892" lon="1.5839">
        <ele>75</ele>
        <time>2018-04-18T12:24:55Z</time>
      </trkpt>
      <trkpt lat="47.26893" lon="1.58311">
        <ele>75</ele>
        <time>2018-04-18T12:25:04Z</time>
      </trkpt>
      <trkpt lat="47.26891" lon="1.5824">
        <ele>75</ele>
        <time>2018-04-18T12:25:12Z</time>
      </trkpt>
      <trkpt lat="47.26896" lon="1.58155">
        <ele>75</ele>
        <time>2018-04-18T12:25:21Z</time>
      </trkpt>
      <trkpt lat="47.26902" lon="1.58112">
        <ele>75</ele>
        <time>2018-04-18T12:25:26Z</time>
      </trkpt>
      <trkpt lat="47.26914" lon="1.58032">
        <ele>74</ele>
        <time>2018-04-18T12:25:35Z</time>
      </trkpt>
      <trkpt lat="47.26923" lon="1.57946">
        <ele>74</ele>
        <time>2018-04-18T12:25:44Z</time>
      </trkpt>
      <trkpt lat="47.26937" lon="1.57862">
        <ele>74</ele>
        <time>2018-04-18T12:25:53Z</time>
      </trkpt>
      <trkpt lat="47.26954" lon="1.5778">
        <ele>73</ele>
        <time>2018-04-18T12:26:02Z</time>
      </trkpt>
      <trkpt lat="47.26968" lon="1.57696">
        <ele>74</ele>
        <time>2018-04-18T12:26:11Z</time>
      </trkpt>
      <trkpt lat="47.2697" lon="1.57607">
        <ele>74</ele>
        <time>2018-04-18T12:26:20Z</time>
      </trkpt>
      <trkpt lat="47.26976" lon="1.57551">
        <ele>74</ele>
        <time>2018-04-18T12:26:26Z</time>
      </trkpt>
      <trkpt lat="47.26991" lon="1.57499">
        <ele>75</ele>
        <time>2018-04-18T12:26:32Z</time>
      </trkpt>
      <trkpt lat="47.2701" lon="1.57422">
        <ele>75</ele>
        <time>2018-04-18T12:26:41Z</time>
      </trkpt>
      <trkpt lat="47.27017" lon="1.57384">
        <ele>75</ele>
        <time>2018-04-18T12:26:45Z</time>
      </trkpt>
      <trkpt lat="47.27027" lon="1.57347">
        <ele>74</ele>
        <time>2018-04-18T12:26:49Z</time>
      </trkpt>
      <trkpt lat="47.27034" lon="1.57319">
        <ele>74</ele>
        <time>2018-04-18T12:26:52Z</time>
      </trkpt>
      <trkpt lat="47.27042" lon="1.5728">
        <ele>75</ele>
        <time>2018-04-18T12:26:56Z</time>
      </trkpt>
      <trkpt lat="47.27055" lon="1.57211">
        <ele>75</ele>
        <time>2018-04-18T12:27:03Z</time>
      </trkpt>
      <trkpt lat="47.27069" lon="1.57131">
        <ele>76</ele>
        <time>2018-04-18T12:27:11Z</time>
      </trkpt>
      <trkpt lat="47.27071" lon="1.57121">
        <ele>76</ele>
        <time>2018-04-18T12:27:12Z</time>
      </trkpt>
      <trkpt lat="47.27075" lon="1.57092">
        <ele>76</ele>
        <time>2018-04-18T12:27:15Z</time>
      </trkpt>
      <trkpt lat="47.27085" lon="1.57009">
        <ele>75</ele>
        <time>2018-04-18T12:27:24Z</time>
      </trkpt>
      <trkpt lat="47.27088" lon="1.56952">
        <ele>75</ele>
        <time>2018-04-18T12:27:30Z</time>
      </trkpt>
      <trkpt lat="47.27083" lon="1.56895">
        <ele>74</ele>
        <time>2018-04-18T12:27:36Z</time>
      </trkpt>
      <trkpt lat="47.27073" lon="1.56809">
        <ele>74</ele>
        <time>2018-04-18T12:27:45Z</time>
      </trkpt>
      <trkpt lat="47.27071" lon="1.56725">
        <ele>75</ele>
        <time>2018-04-18T12:27:55Z</time>
      </trkpt>
      <trkpt lat="47.27076" lon="1.5665">
        <ele>74</ele>
        <time>2018-04-18T12:28:09Z</time>
      </trkpt>
      <trkpt lat="47.27087" lon="1.56601">
        <ele>74</ele>
        <time>2018-04-18T12:28:24Z</time>
      </trkpt>
      <trkpt lat="47.27094" lon="1.566">
        <ele>74</ele>
        <time>2018-04-18T12:28:32Z</time>
      </trkpt>
      <trkpt lat="47.27094" lon="1.566">
        <ele>74</ele>
        <time>2018-04-18T12:28:41Z</time>
      </trkpt>
      <trkpt lat="47.27093" lon="1.566">
        <ele>74</ele>
        <time>2018-04-18T12:28:48Z</time>
      </trkpt>
      <trkpt lat="47.27093" lon="1.566">
        <ele>74</ele>
        <time>2018-04-18T12:28:50Z</time>
      </trkpt>
      <trkpt lat="47.27093" lon="1.566">
        <ele>74</ele>
        <time>2018-04-18T12:28:51Z</time>
      </trkpt>
      <trkpt lat="47.27093" lon="1.566">
        <ele>74</ele>
        <time>2018-04-18T12:29:03Z</time>
      </trkpt>
      <trkpt lat="47.27093" lon="1.566">
        <ele>74</ele>
        <time>2018-04-18T12:29:26Z</time>
      </trkpt>
      <trkpt lat="47.27093" lon="1.566">
        <ele>74</ele>
        <time>2018-04-18T12:29:37Z</time>
      </trkpt>
      <trkpt lat="47.27093" lon="1.56599">
        <ele>74</ele>
        <time>2018-04-18T12:29:42Z</time>
      </trkpt>
      <trkpt lat="47.27093" lon="1.56599">
        <ele>74</ele>
        <time>2018-04-18T12:29:43Z</time>
      </trkpt>
      <trkpt lat="47.27093" lon="1.56599">
        <ele>74</ele>
        <time>2018-04-18T12:29:44Z</time>
      </trkpt>
      <trkpt lat="47.27093" lon="1.56599">
        <ele>74</ele>
        <time>2018-04-18T12:29:45Z</time>
      </trkpt>
      <trkpt lat="47.27093" lon="1.56599">
        <ele>74</ele>
        <time>2018-04-18T12:29:46Z</time>
      </trkpt>
      <trkpt lat="47.27093" lon="1.56599">
        <ele>74</ele>
        <time>2018-04-18T12:30:07Z</time>
      </trkpt>
      <trkpt lat="47.27089" lon="1.56541">
        <ele>75</ele>
        <time>2018-04-18T12:30:20Z</time>
      </trkpt>
      <trkpt lat="47.2709" lon="1.56459">
        <ele>76</ele>
        <time>2018-04-18T12:30:33Z</time>
      </trkpt>
      <trkpt lat="47.2711" lon="1.56381">
        <ele>77</ele>
        <time>2018-04-18T12:30:46Z</time>
      </trkpt>
      <trkpt lat="47.2714" lon="1.56309">
        <ele>77</ele>
        <time>2018-04-18T12:30:58Z</time>
      </trkpt>
      <trkpt lat="47.27172" lon="1.56234">
        <ele>75</ele>
        <time>2018-04-18T12:31:10Z</time>
      </trkpt>
      <trkpt lat="47.27196" lon="1.56162">
        <ele>75</ele>
        <time>2018-04-18T12:31:23Z</time>
      </trkpt>
      <trkpt lat="47.2722" lon="1.56085">
        <ele>75</ele>
        <time>2018-04-18T12:31:35Z</time>
      </trkpt>
      <trkpt lat="47.27242" lon="1.56008">
        <ele>74</ele>
        <time>2018-04-18T12:31:47Z</time>
      </trkpt>
      <trkpt lat="47.27244" lon="1.56001">
        <ele>74</ele>
        <time>2018-04-18T12:31:48Z</time>
      </trkpt>
      <trkpt lat="47.2725" lon="1.55989">
        <ele>74</ele>
        <time>2018-04-18T12:31:50Z</time>
      </trkpt>
      <trkpt lat="47.27257" lon="1.55981">
        <ele>74</ele>
        <time>2018-04-18T12:31:52Z</time>
      </trkpt>
      <trkpt lat="47.27268" lon="1.55974">
        <ele>74</ele>
        <time>2018-04-18T12:31:55Z</time>
      </trkpt>
      <trkpt lat="47.27318" lon="1.55987">
        <ele>74</ele>
        <time>2018-04-18T12:32:10Z</time>
      </trkpt>
      <trkpt lat="47.27326" lon="1.55991">
        <ele>74</ele>
        <time>2018-04-18T12:32:12Z</time>
      </trkpt>
      <trkpt lat="47.27336" lon="1.55991">
        <ele>74</ele>
        <time>2018-04-18T12:32:14Z</time>
      </trkpt>
      <trkpt lat="47.27345" lon="1.55986">
        <ele>75</ele>
        <time>2018-04-18T12:32:16Z</time>
      </trkpt>
      <trkpt lat="47.27352" lon="1.55976">
        <ele>75</ele>
        <time>2018-04-18T12:32:18Z</time>
      </trkpt>
      <trkpt lat="47.27357" lon="1.55964">
        <ele>75</ele>
        <time>2018-04-18T12:32:20Z</time>
      </trkpt>
      <trkpt lat="47.27358" lon="1.5595">
        <ele>75</ele>
        <time>2018-04-18T12:32:22Z</time>
      </trkpt>
      <trkpt lat="47.27356" lon="1.55936">
        <ele>75</ele>
        <time>2018-04-18T12:32:24Z</time>
      </trkpt>
      <trkpt lat="47.27351" lon="1.55924">
        <ele>75</ele>
        <time>2018-04-18T12:32:26Z</time>
      </trkpt>
      <trkpt lat="47.27342" lon="1.55909">
        <ele>75</ele>
        <time>2018-04-18T12:32:29Z</time>
      </trkpt>
      <trkpt lat="47.27339" lon="1.55897">
        <ele>75</ele>
        <time>2018-04-18T12:32:31Z</time>
      </trkpt>
      <trkpt lat="47.27349" lon="1.55814">
        <ele>76</ele>
        <time>2018-04-18T12:32:44Z</time>
      </trkpt>
      <trkpt lat="47.2735" lon="1.55809">
        <ele>76</ele>
        <time>2018-04-18T12:32:45Z</time>
      </trkpt>
      <trkpt lat="47.27352" lon="1.55796">
        <ele>76</ele>
        <time>2018-04-18T12:33:52Z</time>
      </trkpt>
      <trkpt lat="47.27352" lon="1.55796">
        <ele>76</ele>
        <time>2018-04-18T12:34:01Z</time>
      </trkpt>
      <trkpt lat="47.27352" lon="1.55796">
        <ele>76</ele>
        <time>2018-04-18T12:34:12Z</time>
      </trkpt>
      <trkpt lat="47.27352" lon="1.55795">
        <ele>76</ele>
        <time>2018-04-18T12:34:21Z</time>
      </trkpt>
      <trkpt lat="47.27352" lon="1.55794">
        <ele>76</ele>
        <time>2018-04-18T12:34:27Z</time>
      </trkpt>
      <trkpt lat="47.27352" lon="1.55795">
        <ele>76</ele>
        <time>2018-04-18T12:34:44Z</time>
      </trkpt>
      <trkpt lat="47.27364" lon="1.55716">
        <ele>76</ele>
        <time>2018-04-18T12:35:12Z</time>
      </trkpt>
      <trkpt lat="47.27379" lon="1.55641">
        <ele>77</ele>
        <time>2018-04-18T12:35:28Z</time>
      </trkpt>
      <trkpt lat="47.27431" lon="1.55618">
        <ele>78</ele>
        <time>2018-04-18T12:35:50Z</time>
      </trkpt>
      <trkpt lat="47.27457" lon="1.556">
        <ele>78</ele>
        <time>2018-04-18T12:35:59Z</time>
      </trkpt>
      <trkpt lat="47.27473" lon="1.55577">
        <ele>78</ele>
        <time>2018-04-18T12:36:05Z</time>
      </trkpt>
      <trkpt lat="47.27475" lon="1.55573">
        <ele>78</ele>
        <time>2018-04-18T12:36:06Z</time>
      </trkpt>
      <trkpt lat="47.27476" lon="1.55569">
        <ele>78</ele>
        <time>2018-04-18T12:36:07Z</time>
      </trkpt>
      <trkpt lat="47.2748" lon="1.55562">
        <ele>78</ele>
        <time>2018-04-18T12:36:09Z</time>
      </trkpt>
      <trkpt lat="47.27507" lon="1.55536">
        <ele>78</ele>
        <time>2018-04-18T12:36:19Z</time>
      </trkpt>
      <trkpt lat="47.27517" lon="1.55527">
        <ele>78</ele>
        <time>2018-04-18T12:36:22Z</time>
      </trkpt>
      <trkpt lat="47.2753" lon="1.55513">
        <ele>78</ele>
        <time>2018-04-18T12:36:26Z</time>
      </trkpt>
      <trkpt lat="47.27536" lon="1.55505">
        <ele>78</ele>
        <time>2018-04-18T12:36:28Z</time>
      </trkpt>
      <trkpt lat="47.27546" lon="1.55492">
        <ele>78</ele>
        <time>2018-04-18T12:36:32Z</time>
      </trkpt>
      <trkpt lat="47.27551" lon="1.55479">
        <ele>78</ele>
        <time>2018-04-18T12:36:35Z</time>
      </trkpt>
      <trkpt lat="47.27541" lon="1.55396">
        <ele>78</ele>
        <time>2018-04-18T12:36:50Z</time>
      </trkpt>
      <trkpt lat="47.27531" lon="1.5536">
        <ele>78</ele>
        <time>2018-04-18T12:36:58Z</time>
      </trkpt>
      <trkpt lat="47.27526" lon="1.55357">
        <ele>78</ele>
        <time>2018-04-18T12:37:00Z</time>
      </trkpt>
      <trkpt lat="47.27507" lon="1.55362">
        <ele>79</ele>
        <time>2018-04-18T12:37:08Z</time>
      </trkpt>
      <trkpt lat="47.27462" lon="1.55376">
        <ele>78</ele>
        <time>2018-04-18T12:37:28Z</time>
      </trkpt>
      <trkpt lat="47.27454" lon="1.55375">
        <ele>78</ele>
        <time>2018-04-18T12:37:33Z</time>
      </trkpt>
      <trkpt lat="47.27453" lon="1.55379">
        <ele>78</ele>
        <time>2018-04-18T12:37:35Z</time>
      </trkpt>
      <trkpt lat="47.27507" lon="1.55361">
        <ele>79</ele>
        <time>2018-04-18T12:37:55Z</time>
      </trkpt>
      <trkpt lat="47.27506" lon="1.55281">
        <ele>79</ele>
        <time>2018-04-18T12:38:11Z</time>
      </trkpt>
      <trkpt lat="47.27497" lon="1.55199">
        <ele>78</ele>
        <time>2018-04-18T12:38:28Z</time>
      </trkpt>
      <trkpt lat="47.27495" lon="1.55145">
        <ele>78</ele>
        <time>2018-04-18T12:38:38Z</time>
      </trkpt>
      <trkpt lat="47.27494" lon="1.55122">
        <ele>77</ele>
        <time>2018-04-18T12:38:42Z</time>
      </trkpt>
      <trkpt lat="47.27495" lon="1.55106">
        <ele>77</ele>
        <time>2018-04-18T12:38:45Z</time>
      </trkpt>
      <trkpt lat="47.27499" lon="1.55091">
        <ele>77</ele>
        <time>2018-04-18T12:38:48Z</time>
      </trkpt>
      <trkpt lat="47.27504" lon="1.55077">
        <ele>77</ele>
        <time>2018-04-18T12:38:51Z</time>
      </trkpt>
      <trkpt lat="47.27519" lon="1.55067">
        <ele>76</ele>
        <time>2018-04-18T12:38:55Z</time>
      </trkpt>
      <trkpt lat="47.27538" lon="1.55053">
        <ele>76</ele>
        <time>2018-04-18T12:39:00Z</time>
      </trkpt>
      <trkpt lat="47.27562" lon="1.55034">
        <ele>75</ele>
        <time>2018-04-18T12:39:16Z</time>
      </trkpt>
      <trkpt lat="47.27564" lon="1.5503">
        <ele>75</ele>
        <time>2018-04-18T12:39:21Z</time>
      </trkpt>
      <trkpt lat="47.2756" lon="1.55">
        <ele>74</ele>
        <time>2018-04-18T12:39:26Z</time>
      </trkpt>
      <trkpt lat="47.27562" lon="1.54985">
        <ele>74</ele>
        <time>2018-04-18T12:39:28Z</time>
      </trkpt>
      <trkpt lat="47.27576" lon="1.54985">
        <ele>73</ele>
        <time>2018-04-18T12:39:31Z</time>
      </trkpt>
      <trkpt lat="47.27596" lon="1.55013">
        <ele>72</ele>
        <time>2018-04-18T12:39:37Z</time>
      </trkpt>
      <trkpt lat="47.27623" lon="1.55066">
        <ele>73</ele>
        <time>2018-04-18T12:39:47Z</time>
      </trkpt>
      <trkpt lat="47.2763" lon="1.55081">
        <ele>73</ele>
        <time>2018-04-18T12:39:50Z</time>
      </trkpt>
      <trkpt lat="47.27634" lon="1.55091">
        <ele>74</ele>
        <time>2018-04-18T12:39:52Z</time>
      </trkpt>
      <trkpt lat="47.27637" lon="1.55102">
        <ele>74</ele>
        <time>2018-04-18T12:39:54Z</time>
      </trkpt>
      <trkpt lat="47.2764" lon="1.5512">
        <ele>75</ele>
        <time>2018-04-18T12:39:57Z</time>
      </trkpt>
      <trkpt lat="47.27645" lon="1.55152">
        <ele>75</ele>
        <time>2018-04-18T12:40:02Z</time>
      </trkpt>
      <trkpt lat="47.27647" lon="1.55158">
        <ele>75</ele>
        <time>2018-04-18T12:40:03Z</time>
      </trkpt>
      <trkpt lat="47.2765" lon="1.55163">
        <ele>75</ele>
        <time>2018-04-18T12:40:04Z</time>
      </trkpt>
      <trkpt lat="47.27668" lon="1.55203">
        <ele>75</ele>
        <time>2018-04-18T12:40:11Z</time>
      </trkpt>
      <trkpt lat="47.27674" lon="1.55225">
        <ele>75</ele>
        <time>2018-04-18T12:40:15Z</time>
      </trkpt>
      <trkpt lat="47.27679" lon="1.55246">
        <ele>76</ele>
        <time>2018-04-18T12:40:20Z</time>
      </trkpt>
      <trkpt lat="47.27687" lon="1.55312">
        <ele>76</ele>
        <time>2018-04-18T12:40:39Z</time>
      </trkpt>
      <trkpt lat="47.27687" lon="1.5532">
        <ele>76</ele>
        <time>2018-04-18T12:40:42Z</time>
      </trkpt>
      <trkpt lat="47.27682" lon="1.55318">
        <ele>76</ele>
        <time>2018-04-18T12:40:45Z</time>
      </trkpt>
      <trkpt lat="47.27667" lon="1.5525">
        <ele>76</ele>
        <time>2018-04-18T12:40:59Z</time>
      </trkpt>
      <trkpt lat="47.27665" lon="1.5524">
        <ele>76</ele>
        <time>2018-04-18T12:41:01Z</time>
      </trkpt>
      <trkpt lat="47.27664" lon="1.55235">
        <ele>76</ele>
        <time>2018-04-18T12:41:02Z</time>
      </trkpt>
      <trkpt lat="47.27663" lon="1.5523">
        <ele>76</ele>
        <time>2018-04-18T12:41:03Z</time>
      </trkpt>
      <trkpt lat="47.27662" lon="1.55225">
        <ele>76</ele>
        <time>2018-04-18T12:41:04Z</time>
      </trkpt>
      <trkpt lat="47.27657" lon="1.55202">
        <ele>76</ele>
        <time>2018-04-18T12:41:09Z</time>
      </trkpt>
      <trkpt lat="47.27643" lon="1.55145">
        <ele>75</ele>
        <time>2018-04-18T12:41:23Z</time>
      </trkpt>
      <trkpt lat="47.27658" lon="1.5513">
        <ele>74</ele>
        <time>2018-04-18T12:41:29Z</time>
      </trkpt>
      <trkpt lat="47.27674" lon="1.55121">
        <ele>74</ele>
        <time>2018-04-18T12:41:34Z</time>
      </trkpt>
      <trkpt lat="47.27695" lon="1.5511">
        <ele>74</ele>
        <time>2018-04-18T12:41:40Z</time>
      </trkpt>
      <trkpt lat="47.27718" lon="1.55096">
        <ele>74</ele>
        <time>2018-04-18T12:41:47Z</time>
      </trkpt>
      <trkpt lat="47.2774" lon="1.55083">
        <ele>75</ele>
        <time>2018-04-18T12:41:54Z</time>
      </trkpt>
      <trkpt lat="47.27754" lon="1.55076">
        <ele>76</ele>
        <time>2018-04-18T12:41:59Z</time>
      </trkpt>
      <trkpt lat="47.27771" lon="1.55071">
        <ele>77</ele>
        <time>2018-04-18T12:42:05Z</time>
      </trkpt>
      <trkpt lat="47.2779" lon="1.55073">
        <ele>78</ele>
        <time>2018-04-18T12:42:12Z</time>
      </trkpt>
      <trkpt lat="47.27792" lon="1.55073">
        <ele>78</ele>
        <time>2018-04-18T12:42:13Z</time>
      </trkpt>
      <trkpt lat="47.27793" lon="1.55073">
        <ele>78</ele>
        <time>2018-04-18T12:42:14Z</time>
      </trkpt>
      <trkpt lat="47.27795" lon="1.55074">
        <ele>78</ele>
        <time>2018-04-18T12:42:15Z</time>
      </trkpt>
      <trkpt lat="47.27796" lon="1.55075">
        <ele>78</ele>
        <time>2018-04-18T12:42:16Z</time>
      </trkpt>
      <trkpt lat="47.27799" lon="1.55079">
        <ele>78</ele>
        <time>2018-04-18T12:42:19Z</time>
      </trkpt>
      <trkpt lat="47.27799" lon="1.5508">
        <ele>78</ele>
        <time>2018-04-18T12:42:20Z</time>
      </trkpt>
      <trkpt lat="47.27799" lon="1.55082">
        <ele>78</ele>
        <time>2018-04-18T12:42:21Z</time>
      </trkpt>
      <trkpt lat="47.27752" lon="1.5507">
        <ele>76</ele>
        <time>2018-04-18T12:42:40Z</time>
      </trkpt>
      <trkpt lat="47.27746" lon="1.55043">
        <ele>74</ele>
        <time>2018-04-18T12:42:45Z</time>
      </trkpt>
      <trkpt lat="47.27745" lon="1.5504">
        <ele>74</ele>
        <time>2018-04-18T12:42:46Z</time>
      </trkpt>
      <trkpt lat="47.27744" lon="1.55036">
        <ele>74</ele>
        <time>2018-04-18T12:42:47Z</time>
      </trkpt>
      <trkpt lat="47.27742" lon="1.55029">
        <ele>75</ele>
        <time>2018-04-18T12:42:49Z</time>
      </trkpt>
      <trkpt lat="47.27742" lon="1.55024">
        <ele>75</ele>
        <time>2018-04-18T12:42:50Z</time>
      </trkpt>
      <trkpt lat="47.27741" lon="1.5502">
        <ele>75</ele>
        <time>2018-04-18T12:42:51Z</time>
      </trkpt>
      <trkpt lat="47.27737" lon="1.55004">
        <ele>75</ele>
        <time>2018-04-18T12:42:55Z</time>
      </trkpt>
      <trkpt lat="47.27736" lon="1.55">
        <ele>76</ele>
        <time>2018-04-18T12:42:56Z</time>
      </trkpt>
      <trkpt lat="47.27735" lon="1.54996">
        <ele>76</ele>
        <time>2018-04-18T12:42:57Z</time>
      </trkpt>
      <trkpt lat="47.27725" lon="1.54965">
        <ele>75</ele>
        <time>2018-04-18T12:43:06Z</time>
      </trkpt>
      <trkpt lat="47.27724" lon="1.54962">
        <ele>75</ele>
        <time>2018-04-18T12:43:07Z</time>
      </trkpt>
      <trkpt lat="47.27724" lon="1.54958">
        <ele>75</ele>
        <time>2018-04-18T12:43:08Z</time>
      </trkpt>
      <trkpt lat="47.27723" lon="1.54955">
        <ele>75</ele>
        <time>2018-04-18T12:43:09Z</time>
      </trkpt>
      <trkpt lat="47.27721" lon="1.54952">
        <ele>75</ele>
        <time>2018-04-18T12:43:10Z</time>
      </trkpt>
      <trkpt lat="47.2772" lon="1.54949">
        <ele>75</ele>
        <time>2018-04-18T12:43:11Z</time>
      </trkpt>
      <trkpt lat="47.27719" lon="1.54946">
        <ele>75</ele>
        <time>2018-04-18T12:43:12Z</time>
      </trkpt>
      <trkpt lat="47.27718" lon="1.54942">
        <ele>75</ele>
        <time>2018-04-18T12:43:13Z</time>
      </trkpt>
      <trkpt lat="47.27717" lon="1.54938">
        <ele>75</ele>
        <time>2018-04-18T12:43:14Z</time>
      </trkpt>
      <trkpt lat="47.27716" lon="1.54934">
        <ele>75</ele>
        <time>2018-04-18T12:43:15Z</time>
      </trkpt>
      <trkpt lat="47.27713" lon="1.54927">
        <ele>75</ele>
        <time>2018-04-18T12:43:17Z</time>
      </trkpt>
      <trkpt lat="47.27712" lon="1.54923">
        <ele>75</ele>
        <time>2018-04-18T12:43:18Z</time>
      </trkpt>
      <trkpt lat="47.27711" lon="1.54919">
        <ele>75</ele>
        <time>2018-04-18T12:43:19Z</time>
      </trkpt>
      <trkpt lat="47.27709" lon="1.54916">
        <ele>77</ele>
        <time>2018-04-18T12:43:20Z</time>
      </trkpt>
      <trkpt lat="47.27706" lon="1.54905">
        <ele>76</ele>
        <time>2018-04-18T12:43:23Z</time>
      </trkpt>
      <trkpt lat="47.27701" lon="1.54895">
        <ele>76</ele>
        <time>2018-04-18T12:43:26Z</time>
      </trkpt>
      <trkpt lat="47.27695" lon="1.54882">
        <ele>76</ele>
        <time>2018-04-18T12:43:30Z</time>
      </trkpt>
      <trkpt lat="47.2767" lon="1.54839">
        <ele>75</ele>
        <time>2018-04-18T12:43:43Z</time>
      </trkpt>
      <trkpt lat="47.27666" lon="1.54834">
        <ele>75</ele>
        <time>2018-04-18T12:43:45Z</time>
      </trkpt>
      <trkpt lat="47.27629" lon="1.54793">
        <ele>74</ele>
        <time>2018-04-18T12:43:59Z</time>
      </trkpt>
      <trkpt lat="47.27587" lon="1.54741">
        <ele>75</ele>
        <time>2018-04-18T12:44:15Z</time>
      </trkpt>
      <trkpt lat="47.27544" lon="1.54694">
        <ele>77</ele>
        <time>2018-04-18T12:44:36Z</time>
      </trkpt>
      <trkpt lat="47.27532" lon="1.54634">
        <ele>79</ele>
        <time>2018-04-18T12:45:06Z</time>
      </trkpt>
      <trkpt lat="47.27553" lon="1.54573">
        <ele>78</ele>
        <time>2018-04-18T12:45:23Z</time>
      </trkpt>
      <trkpt lat="47.27558" lon="1.5456">
        <ele>78</ele>
        <time>2018-04-18T12:45:26Z</time>
      </trkpt>
      <trkpt lat="47.27559" lon="1.54556">
        <ele>79</ele>
        <time>2018-04-18T12:45:27Z</time>
      </trkpt>
      <trkpt lat="47.27561" lon="1.54552">
        <ele>79</ele>
        <time>2018-04-18T12:45:28Z</time>
      </trkpt>
      <trkpt lat="47.27562" lon="1.54547">
        <ele>79</ele>
        <time>2018-04-18T12:45:29Z</time>
      </trkpt>
      <trkpt lat="47.27584" lon="1.54505">
        <ele>80</ele>
        <time>2018-04-18T12:45:42Z</time>
      </trkpt>
      <trkpt lat="47.27595" lon="1.5449">
        <ele>80</ele>
        <time>2018-04-18T12:45:49Z</time>
      </trkpt>
      <trkpt lat="47.27599" lon="1.54486">
        <ele>80</ele>
        <time>2018-04-18T12:45:53Z</time>
      </trkpt>
      <trkpt lat="47.27612" lon="1.54504">
        <ele>79</ele>
        <time>2018-04-18T12:46:01Z</time>
      </trkpt>
      <trkpt lat="47.27633" lon="1.54547">
        <ele>79</ele>
        <time>2018-04-18T12:46:12Z</time>
      </trkpt>
      <trkpt lat="47.27639" lon="1.54541">
        <ele>79</ele>
        <time>2018-04-18T12:46:15Z</time>
      </trkpt>
      <trkpt lat="47.27642" lon="1.54516">
        <ele>79</ele>
        <time>2018-04-18T12:46:20Z</time>
      </trkpt>
      <trkpt lat="47.27642" lon="1.54506">
        <ele>79</ele>
        <time>2018-04-18T12:46:22Z</time>
      </trkpt>
      <trkpt lat="47.27642" lon="1.54502">
        <ele>79</ele>
        <time>2018-04-18T12:46:23Z</time>
      </trkpt>
      <trkpt lat="47.27644" lon="1.54494">
        <ele>80</ele>
        <time>2018-04-18T12:46:25Z</time>
      </trkpt>
      <trkpt lat="47.27679" lon="1.54452">
        <ele>80</ele>
        <time>2018-04-18T12:46:43Z</time>
      </trkpt>
      <trkpt lat="47.2769" lon="1.54443">
        <ele>80</ele>
        <time>2018-04-18T12:47:00Z</time>
      </trkpt>
    </trkseg>
  </trk>
</gpx>